Time;durP1;ratioP1;P1;durP2;ratioP2;P2;SDS_P1;SDS_P2;PMS_P1;PMS_P2;Temp;Humidity;BMP_temperature;BMP_pressure;BME280_temperature;BME280_humidity;BME280_pressure;Samples;Min_cycle;Max_cycle;Signal;HPM_P1;HPM_P2
2022/12/23 00:00:05;;;;;;;35.78;10.93;;;;;;;8.99;100.00;100231.69;5042707;28;20095;-74
2022/12/23 00:02:30;;;;;;;32.78;9.93;;;;;;;8.99;100.00;100229.94;5041098;28;20033;-73
2022/12/23 00:04:56;;;;;;;37.08;10.25;;;;;;;8.97;100.00;100230.78;5044320;28;20029;-72
2022/12/23 00:07:21;;;;;;;28.08;9.98;;;;;;;8.96;100.00;100235.16;5045661;28;20029;-74
2022/12/23 00:09:49;;;;;;;34.50;9.52;;;;;;;8.98;100.00;100237.78;5057010;28;20025;-73
2022/12/23 00:15:04;;;;;;;28.48;10.13;;;;;;;8.96;100.00;100240.41;5056509;28;20042;-74
2022/12/23 00:17:31;;;;;;;32.47;10.70;;;;;;;8.96;100.00;100240.41;5039385;28;20457;-72
2022/12/23 00:19:56;;;;;;;35.00;10.73;;;;;;;8.93;100.00;100232.50;5047246;28;20079;-74
2022/12/23 00:23:03;;;;;;;33.90;10.35;;;;;;;8.92;100.00;100239.47;5037034;28;20473;-73
2022/12/23 00:25:07;;;;;;;39.38;10.68;;;;;;;8.91;100.00;100242.09;5044635;28;20044;-74
2022/12/23 00:27:32;;;;;;;38.80;10.82;;;;;;;8.89;100.00;100244.69;5041300;28;20028;-73
2022/12/23 00:30:01;;;;;;;36.03;11.35;;;;;;;8.90;100.00;100243.84;5039946;28;20465;-74
2022/12/23 00:32:26;;;;;;;29.35;10.27;;;;;;;8.91;100.00;100247.31;5046607;28;20025;-74
2022/12/23 00:34:51;;;;;;;36.30;11.13;;;;;;;8.90;100.00;100246.47;5046766;28;20040;-73
2022/12/23 00:37:17;;;;;;;36.60;11.90;;;;;;;8.92;100.00;100246.47;5051311;28;20036;-73
2022/12/23 00:45:16;;;;;;;46.10;11.68;;;;;;;8.94;100.00;100253.50;5046059;28;20086;-74
2022/12/23 00:50:28;;;;;;;42.83;11.90;;;;;;;8.95;100.00;100257.00;5044198;28;20140;-73
2022/12/23 00:52:53;;;;;;;42.63;12.00;;;;;;;8.94;100.00;100256.13;5054723;28;20033;-72
2022/12/23 00:55:25;;;;;;;49.35;13.23;;;;;;;8.94;100.00;100252.63;5050980;28;20358;-73
2022/12/23 00:57:51;;;;;;;39.92;11.75;;;;;;;8.94;100.00;100265.75;5042057;28;20423;-74
2022/12/23 01:00:16;;;;;;;48.53;14.25;;;;;;;8.93;100.00;100264.00;5054212;28;20053;-73
2022/12/23 01:05:38;;;;;;;45.78;13.40;;;;;;;8.91;100.00;100276.19;5053358;28;20040;-73
2022/12/23 01:08:03;;;;;;;45.88;14.02;;;;;;;8.90;100.00;100277.94;5046911;28;20027;-73
2022/12/23 01:10:28;;;;;;;52.53;13.80;;;;;;;8.89;100.00;100280.56;5062461;28;20107;-74
2022/12/23 01:12:54;;;;;;;43.17;13.63;;;;;;;8.86;100.00;100278.75;5048130;28;20472;-74
2022/12/23 01:15:19;;;;;;;46.10;14.82;;;;;;;8.85;100.00;100268.25;5052794;28;20024;-73
2022/12/23 01:17:44;;;;;;;40.53;12.38;;;;;;;8.84;100.00;100277.84;5052268;28;20032;-74
2022/12/23 01:20:13;;;;;;;38.75;12.50;;;;;;;8.85;100.00;100273.50;5054137;28;20028;-73
2022/12/23 01:22:38;;;;;;;29.63;10.50;;;;;;;8.81;100.00;100269.94;5049617;28;20071;-73
2022/12/23 01:25:04;;;;;;;27.48;9.80;;;;;;;8.77;100.00;100274.25;5047099;28;20021;-74
2022/12/23 01:27:29;;;;;;;30.30;10.18;;;;;;;8.77;100.00;100284.75;5050071;28;20430;-74
2022/12/23 01:29:55;;;;;;;22.05;8.25;;;;;;;8.78;100.00;100293.50;5055981;28;20534;-73
2022/12/23 01:32:20;;;;;;;23.33;8.18;;;;;;;8.74;100.00;100292.56;5049868;28;20026;-73
2022/12/23 01:34:45;;;;;;;24.13;8.07;;;;;;;8.74;100.00;100302.19;5047758;28;20024;-72
2022/12/23 01:37:11;;;;;;;16.98;7.18;;;;;;;8.71;100.00;100303.03;5050765;28;20044;-73
2022/12/23 01:39:36;;;;;;;19.60;7.15;;;;;;;8.70;100.00;100317.00;5052244;28;20409;-73
2022/12/23 01:44:59;;;;;;;19.77;8.50;;;;;;;8.67;100.00;100319.56;5041355;28;20036;-73
2022/12/23 01:47:30;;;;;;;28.67;8.77;;;;;;;8.66;100.00;100315.19;5045157;28;20033;-73
2022/12/23 01:50:18;;;;;;;28.45;9.68;;;;;;;8.64;100.00;100324.78;5044458;28;20039;-74
2022/12/23 01:52:48;;;;;;;26.70;10.40;;;;;;;8.63;100.00;100330.88;5017306;28;20074;-74
2022/12/23 01:55:19;;;;;;;35.78;13.23;;;;;;;8.65;100.00;100336.16;5058429;28;20037;-74
2022/12/23 01:57:46;;;;;;;35.42;14.80;;;;;;;8.60;100.00;100336.09;5053381;28;20025;-74
2022/12/23 02:05:43;;;;;;;43.55;20.15;;;;;;;8.58;100.00;100353.53;5053215;28;20547;-73
2022/12/23 02:11:19;;;;;;;46.85;21.85;;;;;;;8.57;100.00;100352.66;5048269;28;20545;-73
2022/12/23 02:16:53;;;;;;;58.75;22.55;;;;;;;8.56;100.00;100357.84;5045229;28;20132;-74
2022/12/23 02:19:51;;;;;;;50.05;21.77;;;;;;;8.55;100.00;100369.22;5047564;28;20025;-73
2022/12/23 02:22:46;;;;;;;46.45;19.98;;;;;;;8.53;100.00;100370.91;5049324;28;20029;-73
2022/12/23 02:25:40;;;;;;;46.25;16.65;;;;;;;8.52;100.00;100380.53;5048239;28;20465;-73
2022/12/23 02:28:08;;;;;;;42.25;15.60;;;;;;;8.50;100.00;100369.13;5046898;28;20051;-73
2022/12/23 02:30:47;;;;;;;40.08;14.95;;;;;;;8.50;100.00;100381.34;5050836;28;20029;-74
2022/12/23 02:33:19;;;;;;;47.33;16.27;;;;;;;8.48;100.00;100389.19;5039887;28;20106;-74
2022/12/23 02:35:50;;;;;;;47.45;17.63;;;;;;;8.48;100.00;100398.78;5051371;28;20402;-74
2022/12/23 02:38:25;;;;;;;39.47;18.15;;;;;;;8.44;100.00;100398.69;5046932;28;20426;-73
2022/12/23 02:41:06;;;;;;;42.15;16.67;;;;;;;8.45;100.00;100404.88;5048888;28;20025;-74
2022/12/23 02:43:49;;;;;;;38.70;16.05;;;;;;;8.43;100.00;100407.41;5052816;28;20032;-73
2022/12/23 02:46:33;;;;;;;30.65;14.43;;;;;;;8.44;100.00;100403.94;5051024;28;20033;-73
2022/12/23 02:49:27;;;;;;;;;;;;;;;8.44;100.00;100408.31;5050284;28;20028;-73
2022/12/23 02:51:59;;;;;;;36.03;13.95;;;;;;;8.40;100.00;100396.88;5054268;28;20298;-73
2022/12/23 02:54:29;;;;;;;34.55;13.00;;;;;;;8.38;100.00;100398.59;5048797;28;20130;-73
2022/12/23 02:56:57;;;;;;;39.88;14.32;;;;;;;8.40;100.00;100401.25;5048358;28;20025;-74
2022/12/23 02:59:31;;;;;;;29.67;12.52;;;;;;;8.35;100.00;100403.78;5049970;28;20033;-73
2022/12/23 03:01:59;;;;;;;32.55;11.80;;;;;;;8.36;100.00;100402.06;5054208;28;20032;-74
2022/12/23 03:04:25;;;;;;;32.47;12.25;;;;;;;8.31;100.00;100395.84;5051327;28;20029;-73
2022/12/23 03:06:52;;;;;;;31.25;12.25;;;;;;;8.31;100.00;100396.72;5050382;28;20044;-74
2022/12/23 03:09:32;;;;;;;34.83;11.85;;;;;;;8.28;100.00;100387.03;5043598;28;20036;-73
2022/12/23 03:12:06;;;;;;;31.77;11.05;;;;;;;8.25;100.00;100380.88;5047512;28;20021;-73
2022/12/23 03:15:11;;;;;;;32.20;11.07;;;;;;;8.24;100.00;100384.34;5051192;28;20598;-74
2022/12/23 03:17:57;;;;;;;;;;;;;;;8.23;100.00;100387.81;5050072;28;20108;-74
2022/12/23 03:20:45;;;;;;;32.42;12.30;;;;;;;8.23;100.00;100390.44;5064467;28;19912;-73
2022/12/23 03:23:50;;;;;;;27.25;12.18;;;;;;;8.22;100.00;100393.91;5042052;28;20043;-75
2022/12/23 03:26:32;;;;;;;28.20;12.25;;;;;;;8.21;100.00;100400.03;5028431;28;20045;-72
2022/12/23 03:29:10;;;;;;;32.08;13.10;;;;;;;8.20;100.00;100407.00;5039155;28;20477;-73
2022/12/23 03:31:37;;;;;;;40.50;13.88;;;;;;;8.20;100.00;100403.50;5042888;28;20029;-73
2022/12/23 03:34:07;;;;;;;48.45;14.57;;;;;;;8.19;100.00;100396.47;5047218;28;20548;-74
2022/12/23 03:36:40;;;;;;;33.38;13.90;;;;;;;8.17;100.00;100400.81;5049308;28;20033;-74
2022/12/23 03:39:11;;;;;;;40.45;16.38;;;;;;;8.18;100.00;100399.94;5036224;28;20059;-74
2022/12/23 03:41:43;;;;;;;36.08;14.63;;;;;;;8.17;100.00;100404.31;5045084;28;20079;-73
2022/12/23 03:44:15;;;;;;;39.78;15.32;;;;;;;8.17;100.00;100393.84;5056488;28;20028;-73
2022/12/23 03:46:49;;;;;;;35.53;13.68;;;;;;;8.15;100.00;100397.28;5055014;28;20029;-73
2022/12/23 03:49:22;;;;;;;39.17;14.75;;;;;;;8.16;100.00;100397.31;5043237;28;20021;-73
2022/12/23 03:51:56;;;;;;;39.75;14.20;;;;;;;8.16;100.00;100401.69;5049145;28;20435;-74
2022/12/23 03:54:35;;;;;;;33.38;13.93;;;;;;;8.16;100.00;100409.53;5035982;28;20033;-74
2022/12/23 03:57:04;;;;;;;32.40;13.57;;;;;;;8.14;100.00;100414.75;5042006;28;20029;-73
2022/12/23 03:59:33;;;;;;;37.58;13.98;;;;;;;8.14;100.00;100419.09;5038325;28;20428;-72
2022/12/23 04:02:19;;;;;;;34.33;13.50;;;;;;;8.13;100.00;100426.09;5046645;28;20080;-73
2022/12/23 04:05:10;;;;;;;37.63;13.57;;;;;;;8.15;100.00;100428.72;5047708;28;20069;-73
2022/12/23 04:07:47;;;;;;;36.42;15.25;;;;;;;8.12;100.00;100428.69;5051462;28;20021;-72
2022/12/23 04:10:13;;;;;;;37.65;16.13;;;;;;;8.15;100.00;100426.97;5039903;28;20033;-73
2022/12/23 04:12:39;;;;;;;38.50;15.57;;;;;;;8.14;100.00;100432.19;5046216;28;20032;-74
2022/12/23 04:15:05;;;;;;;35.13;15.70;;;;;;;8.13;100.00;100430.44;5045099;28;20130;-73
2022/12/23 04:17:33;;;;;;;41.75;16.02;;;;;;;8.13;100.00;100433.06;5050904;28;20037;-74
2022/12/23 04:20:01;;;;;;;30.52;15.15;;;;;;;8.13;100.00;100436.56;5084275;28;20102;-73
2022/12/23 04:22:27;;;;;;;38.70;15.98;;;;;;;8.13;100.00;100438.31;5065437;28;20122;-73
2022/12/23 04:24:52;;;;;;;42.03;16.75;;;;;;;8.13;100.00;100435.69;5066464;28;20029;-73
2022/12/23 04:27:17;;;;;;;41.42;15.98;;;;;;;8.14;100.00;100434.81;5047509;28;20025;-72
2022/12/23 04:29:43;;;;;;;40.95;15.98;;;;;;;8.14;100.00;100434.81;5046702;28;20061;-73
2022/12/23 04:32:09;;;;;;;41.75;15.80;;;;;;;8.14;100.00;100437.44;5048705;28;20025;-73
2022/12/23 04:34:35;;;;;;;41.47;15.85;;;;;;;8.13;100.00;100423.47;5046620;28;20029;-74
2022/12/23 04:37:00;;;;;;;37.58;15.18;;;;;;;8.12;100.00;100429.53;5041411;28;20031;-73
2022/12/23 04:39:26;;;;;;;41.05;14.73;;;;;;;8.14;100.00;100424.34;5042434;28;20472;-73
2022/12/23 04:41:51;;;;;;;35.08;14.57;;;;;;;8.13;100.00;100417.34;5049462;28;20461;-74
2022/12/23 04:44:17;;;;;;;35.58;14.55;;;;;;;8.13;100.00;100415.59;5060083;28;20435;-72
2022/12/23 04:46:45;;;;;;;37.35;13.73;;;;;;;8.14;100.00;100413.84;5057195;28;20103;-74
2022/12/23 04:49:10;;;;;;;39.17;15.00;;;;;;;8.13;100.00;100407.72;5057484;28;20036;-73
2022/12/23 04:51:36;;;;;;;42.45;15.77;;;;;;;8.15;100.00;100420.88;5054810;28;20100;-72
2022/12/23 04:54:01;;;;;;;54.45;16.92;;;;;;;8.14;100.00;100426.94;5048585;28;20024;-73
2022/12/23 04:56:26;;;;;;;49.90;17.20;;;;;;;8.12;100.00;100426.94;5060914;28;20059;-73
2022/12/23 04:58:52;;;;;;;46.67;17.08;;;;;;;8.12;100.00;100429.53;5053565;28;20037;-73
2022/12/23 05:01:17;;;;;;;41.95;16.35;;;;;;;8.10;100.00;100419.03;5054604;28;20516;-72
2022/12/23 05:03:42;;;;;;;49.55;17.10;;;;;;;8.10;100.00;100413.78;5053663;28;20033;-73
2022/12/23 05:06:08;;;;;;;45.10;17.05;;;;;;;8.10;100.00;100420.78;5053111;28;20025;-74
2022/12/23 05:08:35;;;;;;;48.25;16.45;;;;;;;8.08;100.00;100423.38;5053906;28;20044;-73
2022/12/23 05:11:00;;;;;;;42.97;16.17;;;;;;;8.09;100.00;100427.75;5051194;28;20025;-74
2022/12/23 05:13:26;;;;;;;44.42;15.90;;;;;;;8.11;100.00;100433.00;5046407;28;20059;-73
2022/12/23 05:15:52;;;;;;;44.00;16.35;;;;;;;8.10;100.00;100437.38;5054250;28;20392;-73
2022/12/23 05:18:21;;;;;;;54.95;17.52;;;;;;;8.09;100.00;100442.59;5051701;28;20111;-73
2022/12/23 05:20:47;;;;;;;51.42;17.70;;;;;;;8.09;100.00;100443.47;5050341;28;20020;-73
2022/12/23 05:23:13;;;;;;;57.20;18.05;;;;;;;8.09;100.00;100446.09;5061601;28;20024;-73
2022/12/23 05:25:39;;;;;;;51.45;17.48;;;;;;;8.08;100.00;100436.50;5053755;28;20476;-73
2022/12/23 05:28:05;;;;;;;54.92;17.42;;;;;;;8.08;100.00;100452.22;5052512;28;20095;-74
2022/12/23 05:30:31;;;;;;;55.50;17.40;;;;;;;8.09;100.00;100468.81;5049747;28;20032;-73
2022/12/23 05:32:57;;;;;;;52.83;17.77;;;;;;;8.08;100.00;100465.31;5053642;28;20039;-72
2022/12/23 05:35:29;;;;;;;57.17;18.05;;;;;;;8.08;100.00;100459.16;5054969;28;20395;-73
2022/12/23 05:37:56;;;;;;;53.10;18.25;;;;;;;8.08;100.00;100456.53;5065717;28;20025;-74
2022/12/23 05:40:22;;;;;;;55.20;17.52;;;;;;;8.08;100.00;100457.44;5046990;28;20499;-73
2022/12/23 05:42:47;;;;;;;58.72;17.70;;;;;;;8.07;100.00;100450.44;5050857;28;20151;-74
2022/12/23 05:45:12;;;;;;;64.20;18.25;;;;;;;8.08;100.00;100446.97;5053234;28;20085;-73
2022/12/23 05:47:40;;;;;;;67.18;19.98;;;;;;;8.08;100.00;100440.81;5050625;28;20477;-74
2022/12/23 05:50:06;;;;;;;53.83;18.05;;;;;;;8.09;100.00;100446.09;5047418;28;20499;-73
2022/12/23 05:52:32;;;;;;;69.38;19.33;;;;;;;8.09;100.00;100442.59;5051857;28;20423;-75
2022/12/23 05:54:57;;;;;;;62.92;19.20;;;;;;;8.07;100.00;100434.72;5052003;28;20028;-72
2022/12/23 05:57:22;;;;;;;63.05;18.55;;;;;;;8.10;100.00;100423.41;5054936;28;20067;-73
2022/12/23 05:59:48;;;;;;;64.60;18.75;;;;;;;8.09;100.00;100414.66;5057323;28;20029;-74
2022/12/23 06:02:13;;;;;;;67.82;18.48;;;;;;;8.10;100.00;100407.69;5044101;28;20538;-75
2022/12/23 06:04:39;;;;;;;60.28;17.58;;;;;;;8.10;100.00;100398.06;5054225;28;20472;-75
2022/12/23 06:07:04;;;;;;;62.67;17.80;;;;;;;8.10;100.00;100395.44;5061137;28;20456;-73
2022/12/23 06:09:29;;;;;;;73.50;19.27;;;;;;;8.12;100.00;100405.09;5054019;28;20025;-72
2022/12/23 06:11:55;;;;;;;73.28;19.85;;;;;;;8.12;100.00;100403.34;5063631;28;20028;-73
2022/12/23 06:14:20;;;;;;;74.60;19.98;;;;;;;8.12;100.00;100405.09;5063300;28;20482;-72
2022/12/23 06:16:45;;;;;;;74.50;18.85;;;;;;;8.13;100.00;100407.72;5064513;28;20112;-70
2022/12/23 06:19:11;;;;;;;75.10;19.67;;;;;;;8.14;100.00;100413.84;5062541;28;20112;-73
2022/12/23 06:21:36;;;;;;;71.80;18.85;;;;;;;8.12;100.00;100416.44;5062234;28;20027;-72
2022/12/23 06:24:02;;;;;;;68.35;19.05;;;;;;;8.14;100.00;100424.34;5052278;28;20485;-71
2022/12/23 06:26:27;;;;;;;76.13;19.77;;;;;;;8.13;100.00;100433.06;5051148;28;20017;-72
2022/12/23 06:28:52;;;;;;;69.85;17.85;;;;;;;8.13;100.00;100443.56;5053421;28;20037;-72
2022/12/23 06:31:21;;;;;;;65.82;17.85;;;;;;;8.13;100.00;100448.78;5051985;28;20020;-72
2022/12/23 06:33:46;;;;;;;60.55;17.13;;;;;;;8.12;100.00;100441.78;5043459;28;20111;-72
2022/12/23 06:36:12;;;;;;;65.28;16.95;;;;;;;8.10;100.00;100440.00;5058547;28;20135;-72
2022/12/23 06:38:37;;;;;;;65.63;17.88;;;;;;;8.12;100.00;100444.41;5050780;28;20021;-73
2022/12/23 06:41:02;;;;;;;58.03;17.35;;;;;;;8.10;100.00;100436.50;5052252;28;20100;-74
2022/12/23 06:43:28;;;;;;;76.03;18.73;;;;;;;8.12;100.00;100441.78;5054621;28;20036;-72
2022/12/23 06:45:54;;;;;;;71.13;16.52;;;;;;;8.12;100.00;100444.41;5054330;28;20025;-72
2022/12/23 06:48:19;;;;;;;71.25;17.42;;;;;;;8.10;100.00;100440.00;5050912;28;20052;-73
2022/12/23 06:50:45;;;;;;;76.05;16.83;;;;;;;8.10;100.00;100437.38;5047628;28;20163;-72
2022/12/23 06:53:11;;;;;;;61.25;16.50;;;;;;;8.12;100.00;100436.53;5050361;28;20025;-71
2022/12/23 06:55:36;;;;;;;63.08;17.08;;;;;;;8.12;100.00;100445.28;5052697;28;20036;-72
2022/12/23 06:58:01;;;;;;;65.18;17.63;;;;;;;8.13;100.00;100446.19;5045262;28;20029;-73
2022/12/23 07:00:27;;;;;;;68.95;17.98;;;;;;;8.13;100.00;100444.44;5055058;28;20094;-71
2022/12/23 07:02:53;;;;;;;63.97;16.85;;;;;;;8.14;100.00;100446.19;5041447;28;20051;-75
2022/12/23 07:05:18;;;;;;;68.68;17.13;;;;;;;8.16;100.00;100454.97;5051863;28;20021;-73
2022/12/23 07:07:44;;;;;;;62.72;17.05;;;;;;;8.15;100.00;100458.44;5061110;28;20068;-75
2022/12/23 07:10:09;;;;;;;65.53;16.80;;;;;;;8.15;100.00;100465.41;5041459;28;20049;-77
2022/12/23 07:12:38;;;;;;;73.55;17.70;;;;;;;8.14;100.00;100464.53;5051901;28;20044;-75
2022/12/23 07:15:04;;;;;;;74.15;19.77;;;;;;;8.15;100.00;100457.56;5052288;28;20106;-74
2022/12/23 07:17:33;;;;;;;74.70;18.38;;;;;;;8.14;100.00;100448.81;5046872;28;20025;-75
2022/12/23 07:20:01;;;;;;;76.82;19.45;;;;;;;8.15;100.00;100452.31;5046546;28;20040;-75
2022/12/23 07:22:26;;;;;;;76.95;18.23;;;;;;;8.16;100.00;100456.72;5041880;28;20105;-76
2022/12/23 07:24:52;;;;;;;82.00;19.98;;;;;;;8.17;100.00;100453.25;5051922;28;20059;-74
2022/12/23 07:27:17;;;;;;;88.82;19.70;;;;;;;8.16;100.00;100444.47;5050383;28;20025;-73
2022/12/23 07:29:45;;;;;;;77.13;19.10;;;;;;;8.15;100.00;100442.69;5046501;28;20033;-70
2022/12/23 07:32:10;;;;;;;83.57;21.17;;;;;;;8.16;100.00;100440.97;5042431;28;20496;-74
2022/12/23 07:34:36;;;;;;;75.38;20.20;;;;;;;8.17;100.00;100437.53;5033337;28;20036;-76
2022/12/23 07:37:01;;;;;;;88.63;21.15;;;;;;;8.17;100.00;100440.13;5034490;28;20029;-75
2022/12/23 07:39:27;;;;;;;82.35;21.02;;;;;;;8.17;100.00;100441.00;5031788;28;20040;-74
2022/12/23 07:41:52;;;;;;;79.43;19.13;;;;;;;8.17;100.00;100440.13;5031990;28;20040;-75
2022/12/23 07:44:17;;;;;;;79.75;21.42;;;;;;;8.16;100.00;100440.97;5031960;28;20033;-74
2022/12/23 07:46:43;;;;;;;86.85;21.88;;;;;;;8.18;100.00;100431.41;5042192;28;20029;-75
2022/12/23 07:49:08;;;;;;;83.70;19.80;;;;;;;8.18;100.00;100428.78;5051327;28;20029;-75
2022/12/23 07:51:34;;;;;;;107.80;24.77;;;;;;;8.19;100.00;100427.94;5067214;28;20021;-76
2022/12/23 07:53:59;;;;;;;87.10;22.63;;;;;;;8.21;100.00;100427.09;5056582;28;20027;-74
2022/12/23 07:56:25;;;;;;;84.38;23.83;;;;;;;8.24;100.00;100429.78;5047039;28;20029;-74
2022/12/23 07:58:52;;;;;;;94.25;23.55;;;;;;;8.24;100.00;100413.19;5050139;28;20036;-75
2022/12/23 08:01:18;;;;;;;98.13;24.05;;;;;;;8.26;100.00;100420.22;5051967;28;20044;-73
2022/12/23 08:03:44;;;;;;;85.68;23.70;;;;;;;8.26;100.00;100416.69;5050886;28;20029;-75
2022/12/23 08:06:12;;;;;;;99.15;22.80;;;;;;;8.25;100.00;100417.59;5051676;28;20035;-76
2022/12/23 08:08:38;;;;;;;95.05;25.00;;;;;;;8.25;100.00;100414.97;5050854;28;20435;-73
2022/12/23 08:11:05;;;;;;;94.93;23.88;;;;;;;8.24;100.00;100416.69;5051320;28;20025;-76
2022/12/23 08:13:34;;;;;;;96.20;25.95;;;;;;;8.25;100.00;100407.97;5051016;28;20035;-74
2022/12/23 08:16:01;;;;;;;88.35;25.10;;;;;;;8.27;100.00;100403.66;5050240;28;20028;-74
2022/12/23 08:18:30;;;;;;;104.68;26.88;;;;;;;8.28;100.00;100388.78;5057637;28;20029;-75
2022/12/23 08:20:57;;;;;;;107.68;27.50;;;;;;;8.31;100.00;100387.97;5071318;28;20126;-74
2022/12/23 08:23:30;;;;;;;103.75;26.05;;;;;;;8.31;100.00;100394.09;5063541;28;20025;-74
2022/12/23 08:26:07;;;;;;;90.32;24.42;;;;;;;8.32;100.00;100393.25;5049012;28;20029;-74
2022/12/23 08:28:33;;;;;;;86.25;24.65;;;;;;;8.33;100.00;100392.38;5051104;28;20174;-77
2022/12/23 08:31:13;;;;;;;104.00;26.17;;;;;;;8.34;100.00;100386.31;5053037;28;20040;-75
2022/12/23 08:33:41;;;;;;;101.07;25.02;;;;;;;8.36;100.00;100388.94;5070821;28;20028;-75
2022/12/23 08:36:14;;;;;;;80.97;22.50;;;;;;;8.39;100.00;100376.75;5048950;28;20032;-75
2022/12/23 08:38:39;;;;;;;94.13;23.25;;;;;;;8.41;100.00;100375.06;5048173;28;20029;-76
2022/12/23 08:41:21;;;;;;;89.30;23.60;;;;;;;8.40;100.00;100378.53;5051218;28;20040;-76
2022/12/23 08:43:46;;;;;;;101.78;24.55;;;;;;;8.41;100.00;100375.06;5065904;28;20472;-74
2022/12/23 08:46:12;;;;;;;93.53;24.17;;;;;;;8.41;100.00;100369.81;5032393;28;20036;-75
2022/12/23 08:48:37;;;;;;;86.45;23.05;;;;;;;8.42;100.00;100374.22;5031210;28;20541;-76
2022/12/23 08:51:17;;;;;;;82.18;22.38;;;;;;;8.43;100.00;100368.09;5046372;28;20387;-75
2022/12/23 08:53:43;;;;;;;76.25;20.92;;;;;;;8.44;100.00;100367.25;5065584;28;20033;-74
2022/12/23 08:56:19;;;;;;;79.05;19.15;;;;;;;8.48;100.00;100369.94;5071253;28;20124;-75
2022/12/23 08:58:47;;;;;;;68.18;18.52;;;;;;;8.46;100.00;100369.91;5049769;28;20036;-76
2022/12/23 09:01:21;;;;;;;60.30;15.98;;;;;;;8.49;100.00;100363.84;5050545;28;20053;-74
2022/12/23 09:03:46;;;;;;;;;;;;;;;8.47;100.00;100355.97;5064555;28;20020;-75
2022/12/23 09:06:22;;;;;;;45.10;12.93;;;;;;;8.51;100.00;100363.03;5070463;28;19913;-74
2022/12/23 09:08:48;;;;;;;42.47;12.60;;;;;;;8.51;100.00;100356.91;5066457;28;20279;-74
2022/12/23 09:11:16;;;;;;;48.33;13.40;;;;;;;8.48;100.00;100351.59;5050289;28;20051;-75
2022/12/23 09:13:44;;;;;;;48.35;12.80;;;;;;;8.50;100.00;100349.88;5045509;28;20057;-75
2022/12/23 09:16:09;;;;;;;43.28;12.05;;;;;;;8.46;100.00;100358.56;5062250;28;20032;-74
2022/12/23 09:18:35;;;;;;;41.25;11.88;;;;;;;8.45;100.00;100357.69;5046657;28;20037;-76
2022/12/23 09:21:04;;;;;;;43.20;11.18;;;;;;;8.48;100.00;100352.47;5068102;28;20499;-76
2022/12/23 09:23:29;;;;;;;42.90;11.25;;;;;;;8.47;100.00;100349.84;5049960;28;20432;-74
2022/12/23 09:25:55;;;;;;;37.35;10.38;;;;;;;8.47;100.00;100347.22;5078008;28;20024;-75
2022/12/23 09:28:24;;;;;;;44.47;11.05;;;;;;;8.46;100.00;100345.44;5054290;28;20028;-74
2022/12/23 09:30:50;;;;;;;37.30;11.52;;;;;;;8.46;100.00;100340.19;5071210;28;20230;-75
2022/12/23 09:33:16;;;;;;;38.20;10.40;;;;;;;8.48;100.00;100327.97;5044209;28;20044;-74
2022/12/23 09:35:41;;;;;;;36.78;11.65;;;;;;;8.48;100.00;100326.25;5062127;28;20435;-75
2022/12/23 09:38:07;;;;;;;45.65;11.93;;;;;;;8.47;100.00;100310.50;5056842;28;20036;-75
2022/12/23 09:40:35;;;;;;;52.80;12.82;;;;;;;8.45;100.00;100307.88;5053333;28;20283;-75
2022/12/23 09:43:15;;;;;;;52.80;13.00;;;;;;;8.47;100.00;100300.03;5058890;28;20055;-75
2022/12/23 09:45:57;;;;;;;50.20;12.15;;;;;;;8.46;100.00;100290.38;5043136;28;20453;-75
2022/12/23 09:48:28;;;;;;;47.80;11.95;;;;;;;8.48;100.00;100288.66;5053957;28;20032;-73
2022/12/23 09:50:54;;;;;;;43.53;12.50;;;;;;;8.46;100.00;100291.25;5055092;28;20056;-75
2022/12/23 09:53:24;;;;;;;39.17;11.15;;;;;;;8.47;100.00;100286.91;5053741;28;20056;-75
2022/12/23 09:55:52;;;;;;;48.63;12.05;;;;;;;8.46;100.00;100282.53;5069512;28;20460;-75
2022/12/23 09:58:44;;;;;;;50.63;12.75;;;;;;;8.50;100.00;100284.34;5054371;28;20064;-74
2022/12/23 10:01:12;;;;;;;57.83;14.18;;;;;;;8.50;100.00;100279.97;5052389;28;20128;-74
2022/12/23 10:03:52;;;;;;;67.97;15.57;;;;;;;8.53;100.00;100285.28;5044287;28;20810;-72
2022/12/23 10:06:24;;;;;;;71.35;16.58;;;;;;;8.50;100.00;100285.19;5052303;28;20041;-71
2022/12/23 10:08:53;;;;;;;66.50;14.00;;;;;;;8.54;100.00;100286.16;5054349;28;20052;-72
2022/12/23 10:11:26;;;;;;;79.07;15.30;;;;;;;8.52;100.00;100279.97;5053146;28;20040;-72
2022/12/23 10:13:59;;;;;;;82.38;17.02;;;;;;;8.50;100.00;100281.72;5052998;28;20017;-72
2022/12/23 10:16:29;;;;;;;89.50;16.48;;;;;;;8.49;100.00;100279.94;5047247;28;20035;-71
2022/12/23 10:19:01;;;;;;;84.95;15.68;;;;;;;8.50;100.00;100279.09;5048946;28;20032;-72
2022/12/23 10:21:42;;;;;;;81.28;17.25;;;;;;;8.48;100.00;100275.53;5048047;28;20033;-72
2022/12/23 10:24:24;;;;;;;100.20;17.80;;;;;;;8.49;100.00;100274.69;5049364;28;20424;-72
2022/12/23 10:27:03;;;;;;;115.15;18.95;;;;;;;8.47;100.00;100269.44;5047769;28;20049;-71
2022/12/23 10:29:32;;;;;;;106.53;19.35;;;;;;;8.49;100.00;100265.09;5053310;28;20052;-71
2022/12/23 10:32:16;;;;;;;119.20;20.92;;;;;;;8.53;100.00;100268.63;5043253;28;20025;-71
2022/12/23 10:35:08;;;;;;;111.80;19.80;;;;;;;8.52;100.00;100265.16;5051290;28;20365;-72
2022/12/23 10:37:55;;;;;;;107.80;21.70;;;;;;;8.50;100.00;100264.22;5046525;28;20048;-72
2022/12/23 10:41:00;;;;;;;127.55;22.63;;;;;;;8.50;100.00;100253.75;5035018;28;20422;-72
2022/12/23 10:43:33;;;;;;;139.18;22.60;;;;;;;8.51;100.00;100252.00;5033094;28;20026;-72
2022/12/23 10:46:17;;;;;;;133.52;23.63;;;;;;;8.51;100.00;100244.16;5045412;28;20025;-72
2022/12/23 10:49:04;;;;;;;130.95;24.70;;;;;;;8.52;100.00;100244.16;5048251;28;20057;-72
2022/12/23 10:51:48;;;;;;;142.25;25.63;;;;;;;8.50;100.00;100247.63;5048374;28;20496;-72
2022/12/23 10:54:22;;;;;;;134.90;24.42;;;;;;;8.50;100.00;100242.38;5055268;28;20040;-72
2022/12/23 10:56:48;;;;;;;140.15;25.38;;;;;;;8.53;100.00;100245.03;5052852;28;20025;-72
2022/12/23 10:59:19;;;;;;;149.07;27.50;;;;;;;8.52;100.00;100236.31;5053002;28;20025;-71
2022/12/23 11:01:49;;;;;;;139.50;26.88;;;;;;;8.53;100.00;100239.78;5046204;28;20444;-72
2022/12/23 11:04:23;;;;;;;176.57;30.73;;;;;;;8.54;100.00;100220.59;5038561;28;20499;-73
2022/12/23 11:06:50;;;;;;;149.27;26.90;;;;;;;8.55;100.00;100222.34;5040046;28;20035;-73
2022/12/23 11:09:21;;;;;;;142.10;30.48;;;;;;;8.55;100.00;100209.25;5038869;28;20056;-74
2022/12/23 11:12:04;;;;;;;147.55;28.85;;;;;;;8.53;100.00;100197.84;5038016;28;20033;-75
2022/12/23 11:14:55;;;;;;;126.57;27.42;;;;;;;8.54;100.00;100190.00;5054563;28;20055;-74
2022/12/23 11:17:23;;;;;;;123.22;27.90;;;;;;;8.55;100.00;100176.03;5037259;28;20081;-74
2022/12/23 11:20:10;;;;;;;134.20;28.55;;;;;;;8.52;100.00;100164.59;5064443;28;20127;-73
2022/12/23 11:22:58;;;;;;;124.07;27.73;;;;;;;8.52;100.00;100159.34;5069852;28;20035;-74
2022/12/23 11:25:35;;;;;;;132.65;27.95;;;;;;;8.49;100.00;100146.22;5051274;28;20075;-73
2022/12/23 11:28:14;;;;;;;128.80;28.33;;;;;;;8.47;100.00;100146.19;5067148;28;20036;-73
2022/12/23 11:30:45;;;;;;;127.05;28.20;;;;;;;8.47;100.00;100140.09;5058639;28;20108;-73
2022/12/23 11:33:38;;;;;;;117.28;26.58;;;;;;;8.45;100.00;100134.81;5046158;28;20465;-73
2022/12/23 11:36:06;;;;;;;131.50;29.10;;;;;;;8.46;100.00;100127.81;5067361;28;20044;-75
2022/12/23 11:38:33;;;;;;;121.15;29.30;;;;;;;8.42;100.00;100113.75;5072535;28;20476;-74
2022/12/23 11:40:59;;;;;;;118.25;28.13;;;;;;;8.43;100.00;100120.75;5072200;28;20028;-73
2022/12/23 11:43:26;;;;;;;118.28;28.75;;;;;;;8.41;100.00;100120.75;5056002;28;20025;-74
2022/12/23 11:46:37;;;;;;;108.38;26.83;;;;;;;8.42;100.00;100121.63;5073342;28;20082;-75
2022/12/23 11:49:06;;;;;;;102.93;27.08;;;;;;;8.41;100.00;100107.63;5041230;28;20538;-73
2022/12/23 11:51:34;;;;;;;99.68;28.27;;;;;;;8.40;100.00;100107.63;5049845;28;20148;-74